Weather at Msauli Airport

Public forecast

Using degrees Celsius for public forecast. Weather courtesy of forecast.io.

Closest aviation weather report (METAR) to Msauli Airport

Report is more than 6 hours old.

Closest report is Matsapha Airport, 32.7 nm (60.6 km) SSE. Retrieved 2020/09/24 12:00 UTC (9 hours ago):

FDMS 241200Z 09003KT CAVOK 30/10 Q1016 NOSIG

Closest aviation forecast (TAF) to Msauli Airport

Forecast is more than 12 hours old.

Closest forecast is Matsapha Airport, 32.7 nm (60.6 km) SSE. Retrieved 2020/03/05 06:00 UTC (7 months ago):

TAF TAF FDMS 050400Z 0506/0518 06007KT CAVOK